Time;durP1;ratioP1;P1;durP2;ratioP2;P2;SDS_P1;SDS_P2;PMS_P1;PMS_P2;Temp;Humidity;BMP_temperature;BMP_pressure;BME280_temperature;BME280_humidity;BME280_pressure;Samples;Min_cycle;Max_cycle;Signal;HPM_P1;HPM_P2
2023/09/17 00:00:14;;;;;;;14.87;13.37;;;;;;;;;;5021901;28;20188;-85
2023/09/17 00:02:40;;;;;;;15.07;13.67;;;;;;;;;;5036075;28;20220;-85
2023/09/17 00:05:06;;;;;;;16.55;14.95;;;;;;;;;;5035718;28;20490;-85
2023/09/17 00:07:35;;;;;;;15.00;13.53;;;;;;;;;;5036124;28;20171;-85
2023/09/17 00:10:01;;;;;;;15.90;14.33;;;;;;;;;;5035963;28;20176;-86
2023/09/17 00:12:27;;;;;;;15.50;13.97;;;;;;;;;;5021625;28;20185;-86
2023/09/17 00:14:56;;;;;;;15.90;14.40;;;;;;;;;;5033753;28;20192;-86
2023/09/17 00:17:22;;;;;;;16.50;14.20;;;;;;;;;;5027073;28;20185;-86
2023/09/17 00:19:48;;;;;;;16.60;15.10;;;;;;;;;;5033229;28;20212;-85
2023/09/17 00:22:17;;;;;;;15.73;14.30;;;;;;;;;;5035850;28;20212;-85
2023/09/17 00:24:43;;;;;;;16.03;14.63;;;;;;;;;;5031173;28;20187;-86
2023/09/17 00:27:09;;;;;;;15.43;13.87;;;;;;;;;;5036132;28;20214;-85
2023/09/17 00:29:55;;;;;;;15.32;13.93;;;;;;;;;;5035689;28;20412;-85
2023/09/17 00:32:21;;;;;;;15.27;13.88;;;;;;;;;;5035305;28;20511;-85
2023/09/17 00:34:49;;;;;;;16.10;14.50;;;;;;;;;;5019850;28;20429;-85
2023/09/17 00:37:16;;;;;;;14.67;12.77;;;;;;;;;;5034198;28;20196;-86
2023/09/17 00:39:42;;;;;;;15.17;13.73;;;;;;;;;;5034755;28;20183;-86
2023/09/17 00:42:17;;;;;;;15.73;14.25;;;;;;;;;;5034742;28;20434;-86
2023/09/17 00:44:43;;;;;;;15.27;13.93;;;;;;;;;;5051933;28;20186;-86
2023/09/17 00:47:10;;;;;;;14.90;13.50;;;;;;;;;;5027070;28;20172;-86
2023/09/17 00:49:36;;;;;;;15.00;13.60;;;;;;;;;;5035346;28;20172;-87
2023/09/17 00:52:03;;;;;;;14.50;13.20;;;;;;;;;;5032405;28;20216;-86
2023/09/17 00:54:32;;;;;;;14.20;12.80;;;;;;;;;;5035237;28;20184;-86
2023/09/17 00:57:00;;;;;;;15.43;14.03;;;;;;;;;;5034915;28;20291;-86
2023/09/17 00:59:26;;;;;;;15.43;13.83;;;;;;;;;;5035374;28;20274;-86
2023/09/17 01:01:55;;;;;;;15.67;14.07;;;;;;;;;;5033485;28;20219;-86
2023/09/17 01:04:21;;;;;;;15.50;13.93;;;;;;;;;;5052340;28;20172;-86
2023/09/17 01:06:47;;;;;;;15.17;13.77;;;;;;;;;;5051978;28;20184;-85
2023/09/17 01:09:16;;;;;;;15.87;14.10;;;;;;;;;;5035000;28;20203;-86
2023/09/17 01:11:42;;;;;;;17.23;15.63;;;;;;;;;;5028157;28;20199;-86
2023/09/17 01:14:12;;;;;;;16.97;15.43;;;;;;;;;;5018564;28;20212;-87
2023/09/17 01:16:38;;;;;;;17.53;15.83;;;;;;;;;;5051039;28;20199;-85
2023/09/17 01:19:04;;;;;;;19.10;17.13;;;;;;;;;;5052469;28;20271;-85
2023/09/17 01:21:37;;;;;;;18.73;16.73;;;;;;;;;;5051201;28;20222;-85
2023/09/17 01:24:14;;;;;;;21.67;19.43;;;;;;;;;;5038842;28;20172;-85
2023/09/17 01:26:41;;;;;;;21.43;19.20;;;;;;;;;;5039126;28;20207;-87
2023/09/17 01:29:07;;;;;;;23.23;20.90;;;;;;;;;;5036581;28;20180;-88
2023/09/17 01:31:35;;;;;;;23.03;20.73;;;;;;;;;;5039053;28;20188;-87
2023/09/17 01:34:01;;;;;;;23.77;21.27;;;;;;;;;;5039347;28;20184;-87
2023/09/17 01:36:44;;;;;;;;;;;;;;;;;;;;;
2023/09/17 01:39:27;;;;;;;23.70;21.50;;;;;;;;;;5037444;28;20187;-88
2023/09/17 01:42:27;;;;;;;24.40;22.10;;;;;;;;;;5038177;28;20212;-88
2023/09/17 01:44:47;;;;;;;24.13;21.77;;;;;;;;;;5055079;28;20176;-87
2023/09/17 01:47:18;;;;;;;24.30;21.97;;;;;;;;;;5037661;28;20180;-87
2023/09/17 01:49:45;;;;;;;25.47;22.90;;;;;;;;;;5053927;28;20184;-88
2023/09/17 01:52:11;;;;;;;24.93;22.33;;;;;;;;;;5038054;28;20243;-90
2023/09/17 01:54:43;;;;;;;24.70;22.23;;;;;;;;;;5025454;28;20215;-89
2023/09/17 01:57:09;;;;;;;23.77;21.67;;;;;;;;;;5023606;28;20200;-88
2023/09/17 01:59:38;;;;;;;25.53;23.13;;;;;;;;;;5051034;28;20195;-89
2023/09/17 02:02:07;;;;;;;24.60;22.30;;;;;;;;;;5037568;28;20310;-88
2023/09/17 02:04:40;;;;;;;25.80;23.30;;;;;;;;;;5038842;28;20192;-88
2023/09/17 02:07:06;;;;;;;25.50;23.00;;;;;;;;;;5038645;28;20184;-87
2023/09/17 02:09:35;;;;;;;24.17;21.87;;;;;;;;;;5037909;28;20191;-88
2023/09/17 02:12:04;;;;;;;23.50;21.40;;;;;;;;;;5038387;28;20203;-89
2023/09/17 02:14:30;;;;;;;25.03;22.47;;;;;;;;;;5037390;28;20187;-88
2023/09/17 02:16:56;;;;;;;25.23;22.83;;;;;;;;;;5037785;28;20184;-86
2023/09/17 02:19:25;;;;;;;25.07;22.63;;;;;;;;;;5039051;28;20180;-87
2023/09/17 02:21:52;;;;;;;24.13;21.73;;;;;;;;;;5037737;28;20200;-87
2023/09/17 02:24:36;;;;;;;24.80;22.43;;;;;;;;;;5038600;28;20184;-87
2023/09/17 02:27:08;;;;;;;24.33;22.03;;;;;;;;;;5054147;28;20214;-87
2023/09/17 02:29:34;;;;;;;24.60;22.30;;;;;;;;;;5038544;28;20176;-86
2023/09/17 02:32:01;;;;;;;25.83;23.30;;;;;;;;;;5038535;28;20374;-87
2023/09/17 02:34:29;;;;;;;25.70;23.30;;;;;;;;;;5037421;28;20169;-86
2023/09/17 02:36:55;;;;;;;25.90;23.60;;;;;;;;;;5036228;28;20180;-87
2023/09/17 02:39:40;;;;;;;27.13;24.53;;;;;;;;;;5036249;28;20172;-85
2023/09/17 02:42:06;;;;;;;26.37;23.73;;;;;;;;;;5028970;28;20212;-85
2023/09/17 02:44:37;;;;;;;25.53;22.93;;;;;;;;;;5037200;28;20326;-85
2023/09/17 02:47:10;;;;;;;26.40;23.67;;;;;;;;;;5030640;28;20189;-87
2023/09/17 02:50:03;;;;;;;23.83;21.53;;;;;;;;;;5049637;28;20275;-86
2023/09/17 02:52:29;;;;;;;23.30;20.80;;;;;;;;;;4939104;28;20223;-87
2023/09/17 02:58:05;;;;;;;21.30;19.33;;;;;;;;;;4955423;29;20233;-86
2023/09/17 03:00:34;;;;;;;21.00;18.77;;;;;;;;;;4939459;29;20203;-87
2023/09/17 03:03:00;;;;;;;19.53;17.83;;;;;;;;;;4938693;28;20219;-86
2023/09/17 03:05:26;;;;;;;20.87;18.97;;;;;;;;;;4938812;28;20187;-86
2023/09/17 03:08:05;;;;;;;21.00;18.90;;;;;;;;;;4955188;29;20243;-85
2023/09/17 03:10:32;;;;;;;21.00;19.00;;;;;;;;;;4954796;29;20199;-87
2023/09/17 03:13:01;;;;;;;21.63;19.57;;;;;;;;;;4938931;28;20210;-86
2023/09/17 03:15:30;;;;;;;22.63;20.53;;;;;;;;;;4948951;28;20345;-85
2023/09/17 03:18:02;;;;;;;22.47;20.37;;;;;;;;;;5017651;28;20216;-85
2023/09/17 03:20:33;;;;;;;20.97;19.07;;;;;;;;;;5022675;28;20185;-86
2023/09/17 03:23:05;;;;;;;23.03;20.63;;;;;;;;;;5033567;28;20236;-85
2023/09/17 03:25:40;;;;;;;23.27;21.10;;;;;;;;;;5001813;28;20184;-85
2023/09/17 03:28:11;;;;;;;22.73;20.57;;;;;;;;;;5017326;28;20181;-87
2023/09/17 03:30:43;;;;;;;23.00;21.00;;;;;;;;;;5014146;28;20177;-86
2023/09/17 03:33:18;;;;;;;21.60;19.60;;;;;;;;;;5034142;28;20189;-85
2023/09/17 03:35:46;;;;;;;21.30;19.23;;;;;;;;;;5008769;28;20180;-86
2023/09/17 03:38:15;;;;;;;21.80;19.70;;;;;;;;;;4998495;28;20196;-85
2023/09/17 03:40:41;;;;;;;22.53;20.43;;;;;;;;;;5014218;28;20193;-86
2023/09/17 03:43:10;;;;;;;21.20;19.20;;;;;;;;;;5013456;28;20311;-87
2023/09/17 03:45:48;;;;;;;22.27;20.17;;;;;;;;;;5021603;28;20185;-86
2023/09/17 03:48:14;;;;;;;21.93;19.87;;;;;;;;;;5021179;28;20205;-86
2023/09/17 03:50:44;;;;;;;22.30;20.30;;;;;;;;;;5030547;28;20268;-86
2023/09/17 03:53:10;;;;;;;21.20;19.20;;;;;;;;;;5010733;28;20239;-87
2023/09/17 03:55:36;;;;;;;20.83;18.97;;;;;;;;;;5013643;28;20189;-87
2023/09/17 03:58:03;;;;;;;21.80;19.80;;;;;;;;;;5013552;28;20202;-87
2023/09/17 04:00:30;;;;;;;21.90;19.80;;;;;;;;;;4998479;28;20296;-87
2023/09/17 04:02:56;;;;;;;24.40;20.67;;;;;;;;;;5029022;28;20231;-85
2023/09/17 04:05:22;;;;;;;21.77;19.67;;;;;;;;;;5017883;28;20188;-86
2023/09/17 04:07:59;;;;;;;22.90;20.73;;;;;;;;;;5028271;28;20188;-86
2023/09/17 04:10:34;;;;;;;23.40;21.30;;;;;;;;;;5049692;28;20202;-86
2023/09/17 04:13:03;;;;;;;23.83;21.57;;;;;;;;;;5021227;28;20191;-86
2023/09/17 04:15:29;;;;;;;24.67;22.30;;;;;;;;;;5024760;28;20189;-86
2023/09/17 04:17:55;;;;;;;25.03;22.60;;;;;;;;;;5016218;28;20184;-86
2023/09/17 04:20:24;;;;;;;24.37;22.07;;;;;;;;;;5032800;28;20241;-86
2023/09/17 04:22:50;;;;;;;26.73;24.03;;;;;;;;;;5008875;28;20217;-85
2023/09/17 04:25:38;;;;;;;26.07;23.43;;;;;;;;;;5012213;28;20185;-84
2023/09/17 04:28:05;;;;;;;25.70;23.20;;;;;;;;;;5018197;28;20196;-84
2023/09/17 04:30:33;;;;;;;26.60;24.00;;;;;;;;;;5016711;28;20188;-86
2023/09/17 04:33:01;;;;;;;26.00;23.33;;;;;;;;;;5016603;28;20223;-86
2023/09/17 04:35:27;;;;;;;26.63;24.20;;;;;;;;;;5018943;28;20192;-86
2023/09/17 04:37:56;;;;;;;27.40;24.67;;;;;;;;;;5032139;28;20184;-85
2023/09/17 04:40:24;;;;;;;30.07;27.13;;;;;;;;;;5034538;28;20188;-85
2023/09/17 04:43:01;;;;;;;28.10;25.30;;;;;;;;;;5021917;28;20212;-85
2023/09/17 04:45:34;;;;;;;28.07;25.13;;;;;;;;;;5016528;28;20222;-84
2023/09/17 04:48:00;;;;;;;28.40;25.60;;;;;;;;;;5015221;28;20192;-85
2023/09/17 04:50:29;;;;;;;28.83;26.00;;;;;;;;;;5015339;28;20219;-85
2023/09/17 04:52:56;;;;;;;29.03;26.23;;;;;;;;;;5015079;28;20223;-84
2023/09/17 04:55:22;;;;;;;29.33;26.27;;;;;;;;;;5016219;28;20184;-84
2023/09/17 04:57:51;;;;;;;29.80;26.70;;;;;;;;;;5012347;28;20205;-84
2023/09/17 05:00:20;;;;;;;29.90;26.80;;;;;;;;;;5017291;28;20179;-84
2023/09/17 05:02:49;;;;;;;29.80;26.80;;;;;;;;;;5030432;28;20300;-84
2023/09/17 05:05:17;;;;;;;28.83;25.97;;;;;;;;;;5015746;28;20188;-85
2023/09/17 05:07:43;;;;;;;29.67;26.67;;;;;;;;;;5026545;28;20180;-84
2023/09/17 05:10:18;;;;;;;29.50;26.50;;;;;;;;;;5018730;28;20187;-85
2023/09/17 05:12:47;;;;;;;30.50;27.17;;;;;;;;;;5035203;28;20187;-84
2023/09/17 05:15:13;;;;;;;30.73;27.60;;;;;;;;;;5009851;28;20188;-84
2023/09/17 05:17:39;;;;;;;30.97;27.80;;;;;;;;;;5034131;28;20188;-84
2023/09/17 05:20:06;;;;;;;30.70;27.60;;;;;;;;;;5024686;28;20211;-84
2023/09/17 05:22:32;;;;;;;29.20;26.40;;;;;;;;;;5027555;28;20223;-84
2023/09/17 05:24:58;;;;;;;29.83;26.73;;;;;;;;;;5034881;28;20188;-84
2023/09/17 05:27:24;;;;;;;30.50;27.50;;;;;;;;;;5015765;28;20180;-84
2023/09/17 05:29:53;;;;;;;30.27;27.07;;;;;;;;;;5020137;28;20196;-84
2023/09/17 05:32:19;;;;;;;29.97;26.87;;;;;;;;;;5015785;28;20212;-84
2023/09/17 05:34:46;;;;;;;29.47;26.53;;;;;;;;;;5014234;28;20184;-84
2023/09/17 05:37:14;;;;;;;29.63;26.57;;;;;;;;;;5019962;28;20196;-84
2023/09/17 05:39:40;;;;;;;29.87;26.80;;;;;;;;;;5012941;28;20185;-83
2023/09/17 05:42:06;;;;;;;31.03;27.50;;;;;;;;;;5014616;28;20211;-84
2023/09/17 05:44:32;;;;;;;30.73;27.73;;;;;;;;;;5014762;28;20197;-83
2023/09/17 05:47:00;;;;;;;30.07;26.90;;;;;;;;;;5014758;28;20263;-84
2023/09/17 05:49:26;;;;;;;29.40;26.23;;;;;;;;;;5008271;28;20177;-83
2023/09/17 05:51:55;;;;;;;29.97;26.70;;;;;;;;;;5013556;28;20216;-86
2023/09/17 05:54:24;;;;;;;30.27;26.70;;;;;;;;;;5017269;28;20262;-86
2023/09/17 05:56:51;;;;;;;29.20;26.20;;;;;;;;;;5015135;28;20226;-86
2023/09/17 05:59:17;;;;;;;29.13;25.93;;;;;;;;;;5015580;28;20188;-85
2023/09/17 06:01:43;;;;;;;28.23;25.33;;;;;;;;;;5016332;28;20325;-86
2023/09/17 06:04:09;;;;;;;27.93;24.97;;;;;;;;;;5014030;28;20182;-85
2023/09/17 06:06:35;;;;;;;27.07;24.23;;;;;;;;;;5015067;28;20177;-86
2023/09/17 06:09:01;;;;;;;25.50;22.93;;;;;;;;;;5015262;28;20173;-86
2023/09/17 06:11:30;;;;;;;25.63;23.07;;;;;;;;;;5020134;28;20187;-84
2023/09/17 06:13:56;;;;;;;27.13;24.20;;;;;;;;;;5020567;28;20189;-85
2023/09/17 06:16:22;;;;;;;25.80;23.27;;;;;;;;;;5020189;28;20206;-84
2023/09/17 06:18:48;;;;;;;25.00;22.50;;;;;;;;;;5018210;28;20216;-86
2023/09/17 06:21:16;;;;;;;24.97;22.57;;;;;;;;;;5018963;28;20194;-86
2023/09/17 06:23:42;;;;;;;23.80;21.40;;;;;;;;;;5017780;28;20173;-86
2023/09/17 06:26:14;;;;;;;24.83;22.17;;;;;;;;;;5035266;28;20199;-85
2023/09/17 06:28:40;;;;;;;23.93;21.13;;;;;;;;;;5007514;28;20184;-86
2023/09/17 06:31:07;;;;;;;23.17;20.77;;;;;;;;;;5020407;28;20185;-86
2023/09/17 06:33:36;;;;;;;21.73;19.63;;;;;;;;;;5018168;28;20173;-85
2023/09/17 06:36:03;;;;;;;21.73;19.63;;;;;;;;;;5000114;28;20180;-85
2023/09/17 06:38:29;;;;;;;21.93;19.83;;;;;;;;;;5004747;28;20256;-86
2023/09/17 06:40:59;;;;;;;21.00;18.80;;;;;;;;;;5017740;28;20177;-86
2023/09/17 06:43:29;;;;;;;20.53;18.53;;;;;;;;;;5015838;28;20358;-86
2023/09/17 06:45:59;;;;;;;20.53;18.37;;;;;;;;;;5016996;28;20181;-87
2023/09/17 06:48:25;;;;;;;20.53;18.30;;;;;;;;;;5018789;28;20181;-86
2023/09/17 06:50:55;;;;;;;20.60;18.57;;;;;;;;;;5017628;28;20185;-87
2023/09/17 06:53:33;;;;;;;19.50;17.57;;;;;;;;;;5018623;28;20204;-86
2023/09/17 06:56:00;;;;;;;20.17;18.10;;;;;;;;;;5016452;28;20188;-87
2023/09/17 06:58:29;;;;;;;19.33;17.37;;;;;;;;;;5001239;28;20184;-87
2023/09/17 07:00:55;;;;;;;19.40;17.23;;;;;;;;;;5016519;28;20196;-85
2023/09/17 07:03:21;;;;;;;19.10;17.20;;;;;;;;;;5034406;28;20228;-86
2023/09/17 07:05:47;;;;;;;19.20;17.23;;;;;;;;;;5019985;28;20176;-86
2023/09/17 07:08:16;;;;;;;18.83;16.93;;;;;;;;;;5037368;28;20164;-86
2023/09/17 07:10:43;;;;;;;18.67;16.97;;;;;;;;;;5037417;28;20168;-85
2023/09/17 07:13:13;;;;;;;18.67;16.30;;;;;;;;;;5036568;28;20187;-85
2023/09/17 07:15:42;;;;;;;19.00;17.00;;;;;;;;;;5037216;28;20200;-84
2023/09/17 07:18:08;;;;;;;18.50;16.70;;;;;;;;;;5037364;28;20175;-81
2023/09/17 07:20:36;;;;;;;16.97;15.23;;;;;;;;;;5020377;28;20184;-81
2023/09/17 07:23:02;;;;;;;16.53;14.93;;;;;;;;;;5028469;28;20212;-81
2023/09/17 07:25:28;;;;;;;18.03;16.17;;;;;;;;;;5050490;28;20183;-80
2023/09/17 07:27:54;;;;;;;18.93;16.27;;;;;;;;;;5037032;28;20184;-81
2023/09/17 07:30:20;;;;;;;18.27;16.37;;;;;;;;;;5018872;28;20212;-81
2023/09/17 07:32:46;;;;;;;17.73;15.93;;;;;;;;;;5037706;28;20222;-81
2023/09/17 07:35:12;;;;;;;17.10;15.37;;;;;;;;;;5036745;28;20191;-81
2023/09/17 07:37:38;;;;;;;17.20;15.50;;;;;;;;;;5017919;28;20189;-81
2023/09/17 07:40:06;;;;;;;17.20;15.50;;;;;;;;;;5024648;28;20176;-81
2023/09/17 07:42:32;;;;;;;16.67;15.00;;;;;;;;;;5037438;28;20203;-81
2023/09/17 07:44:58;;;;;;;17.10;15.50;;;;;;;;;;5037471;28;20374;-82
2023/09/17 07:47:24;;;;;;;17.67;15.87;;;;;;;;;;5020926;28;20253;-81
2023/09/17 07:49:53;;;;;;;17.43;15.77;;;;;;;;;;5037776;28;20175;-82
2023/09/17 07:52:19;;;;;;;17.43;15.73;;;;;;;;;;5037587;28;20211;-82
2023/09/17 07:54:45;;;;;;;16.83;15.10;;;;;;;;;;5037510;28;20180;-83
2023/09/17 07:57:12;;;;;;;18.07;16.40;;;;;;;;;;5021374;28;20191;-83
2023/09/17 07:59:38;;;;;;;19.07;17.13;;;;;;;;;;5037779;28;20211;-83
2023/09/17 08:02:04;;;;;;;18.73;16.93;;;;;;;;;;5037484;28;20296;-83
2023/09/17 08:04:30;;;;;;;18.87;16.90;;;;;;;;;;5020810;28;20184;-83
2023/09/17 08:06:59;;;;;;;19.03;17.20;;;;;;;;;;5037222;28;20275;-83
2023/09/17 08:09:26;;;;;;;23.73;17.37;;;;;;;;;;5036906;28;20172;-83
2023/09/17 08:11:52;;;;;;;18.90;17.03;;;;;;;;;;5037243;28;20187;-83
2023/09/17 08:14:22;;;;;;;20.23;18.27;;;;;;;;;;5036730;28;20223;-82
2023/09/17 08:16:48;;;;;;;22.23;19.83;;;;;;;;;;5036924;28;20237;-83
2023/09/17 08:19:20;;;;;;;22.13;19.83;;;;;;;;;;5036951;28;20180;-83
2023/09/17 08:21:46;;;;;;;22.87;20.77;;;;;;;;;;5036576;28;20215;-83
2023/09/17 08:24:14;;;;;;;22.73;20.40;;;;;;;;;;5020182;28;20180;-84
2023/09/17 08:26:43;;;;;;;24.23;21.27;;;;;;;;;;5032611;28;20187;-85
2023/09/17 08:29:09;;;;;;;25.63;23.03;;;;;;;;;;5036842;28;20180;-85
2023/09/17 08:31:36;;;;;;;25.43;22.77;;;;;;;;;;5034560;28;20181;-86
2023/09/17 08:34:03;;;;;;;27.13;24.33;;;;;;;;;;5036012;28;20188;-86
2023/09/17 08:36:29;;;;;;;27.43;24.57;;;;;;;;;;5020621;28;20188;-86
2023/09/17 08:38:55;;;;;;;28.30;25.40;;;;;;;;;;5037121;28;20211;-85
2023/09/17 08:41:25;;;;;;;27.97;25.37;;;;;;;;;;5035395;28;20192;-84
2023/09/17 08:43:53;;;;;;;33.43;27.23;;;;;;;;;;5036840;28;20184;-84
2023/09/17 08:46:22;;;;;;;31.27;27.93;;;;;;;;;;5036204;28;20246;-86
2023/09/17 08:48:49;;;;;;;32.37;28.77;;;;;;;;;;5035554;28;20172;-84
2023/09/17 08:51:18;;;;;;;33.33;29.73;;;;;;;;;;5033096;28;20202;-85
2023/09/17 08:53:49;;;;;;;33.60;30.03;;;;;;;;;;5036510;28;20200;-86
2023/09/17 08:56:17;;;;;;;34.63;31.00;;;;;;;;;;5035698;28;20179;-85
2023/09/17 08:58:49;;;;;;;34.50;30.90;;;;;;;;;;5019591;28;20195;-85
2023/09/17 09:01:16;;;;;;;34.30;30.70;;;;;;;;;;5036643;28;20179;-85
2023/09/17 09:03:45;;;;;;;36.03;32.43;;;;;;;;;;5036067;28;20289;-85
2023/09/17 09:06:11;;;;;;;36.20;32.57;;;;;;;;;;5036672;28;20207;-84
2023/09/17 09:08:37;;;;;;;36.07;32.33;;;;;;;;;;5019891;28;20222;-85
2023/09/17 09:11:06;;;;;;;37.10;33.13;;;;;;;;;;5036654;28;20175;-84
2023/09/17 09:13:32;;;;;;;35.90;32.20;;;;;;;;;;5025870;28;20192;-85
2023/09/17 09:15:58;;;;;;;35.90;32.10;;;;;;;;;;5000081;28;20227;-85
2023/09/17 09:18:27;;;;;;;38.10;33.37;;;;;;;;;;5033166;28;20194;-90
2023/09/17 09:20:53;;;;;;;36.90;33.10;;;;;;;;;;5016787;28;20242;-85
2023/09/17 09:23:19;;;;;;;38.13;33.83;;;;;;;;;;4999738;28;20224;-85
2023/09/17 09:25:45;;;;;;;35.60;31.97;;;;;;;;;;5016979;28;20203;-84
2023/09/17 09:28:11;;;;;;;33.70;30.27;;;;;;;;;;5016446;28;20173;-85
2023/09/17 09:30:37;;;;;;;32.60;29.43;;;;;;;;;;5016189;28;20267;-85
2023/09/17 09:33:04;;;;;;;35.10;31.10;;;;;;;;;;5016937;28;20226;-85
2023/09/17 09:35:31;;;;;;;39.10;32.30;;;;;;;;;;5016593;28;20193;-86
2023/09/17 09:38:01;;;;;;;38.90;32.57;;;;;;;;;;5016662;28;20177;-86
2023/09/17 09:40:27;;;;;;;35.97;32.33;;;;;;;;;;5016072;28;20176;-87
2023/09/17 09:42:53;;;;;;;36.63;32.47;;;;;;;;;;5016008;28;20246;-87
2023/09/17 09:45:22;;;;;;;37.67;33.67;;;;;;;;;;5019887;28;20180;-86
2023/09/17 09:47:57;;;;;;;39.80;35.23;;;;;;;;;;5020056;28;20183;-85
2023/09/17 09:50:30;;;;;;;36.97;33.27;;;;;;;;;;5020285;28;20180;-88
2023/09/17 09:52:59;;;;;;;38.90;35.07;;;;;;;;;;5020144;28;20211;-86
2023/09/17 09:55:27;;;;;;;37.93;34.13;;;;;;;;;;5018955;28;20212;-86
2023/09/17 09:57:53;;;;;;;39.70;35.60;;;;;;;;;;5008087;28;20192;-87
2023/09/17 10:00:26;;;;;;;39.43;35.43;;;;;;;;;;5022109;28;20188;-87
2023/09/17 10:02:53;;;;;;;38.33;34.33;;;;;;;;;;5039380;28;20310;-87
2023/09/17 10:05:31;;;;;;;38.60;34.07;;;;;;;;;;5039742;28;20179;-87
2023/09/17 10:07:57;;;;;;;38.23;34.07;;;;;;;;;;5039315;28;20179;-87
2023/09/17 10:10:25;;;;;;;38.83;34.90;;;;;;;;;;5023354;28;20175;-87
2023/09/17 10:12:55;;;;;;;38.43;34.50;;;;;;;;;;5039829;28;20180;-87
2023/09/17 10:15:23;;;;;;;38.57;34.70;;;;;;;;;;5023398;28;20279;-87
2023/09/17 10:17:50;;;;;;;37.27;33.57;;;;;;;;;;5023634;28;20278;-87
2023/09/17 10:20:18;;;;;;;38.50;34.60;;;;;;;;;;5039667;28;20187;-87
2023/09/17 10:22:46;;;;;;;37.97;34.00;;;;;;;;;;5023020;28;20208;-87
2023/09/17 10:25:16;;;;;;;37.57;34.17;;;;;;;;;;5038837;28;20176;-87
2023/09/17 10:27:45;;;;;;;38.20;34.37;;;;;;;;;;5038951;28;20172;-87
2023/09/17 10:30:13;;;;;;;41.27;37.03;;;;;;;;;;5025675;28;20235;-87
2023/09/17 10:32:39;;;;;;;39.00;34.90;;;;;;;;;;5034197;28;20268;-87
2023/09/17 10:35:09;;;;;;;40.00;35.77;;;;;;;;;;5018826;28;20181;-87
2023/09/17 10:37:35;;;;;;;37.63;34.00;;;;;;;;;;5002180;28;20204;-87
2023/09/17 10:40:02;;;;;;;39.03;35.03;;;;;;;;;;5035414;28;20188;-87
2023/09/17 10:42:29;;;;;;;39.43;35.33;;;;;;;;;;5035274;28;20275;-87
2023/09/17 10:44:56;;;;;;;40.93;36.43;;;;;;;;;;5034613;28;20185;-87
2023/09/17 10:47:24;;;;;;;39.80;35.60;;;;;;;;;;5033778;28;20180;-87
2023/09/17 10:49:51;;;;;;;39.43;35.53;;;;;;;;;;5017747;28;20185;-87
2023/09/17 10:52:17;;;;;;;41.73;37.40;;;;;;;;;;5018595;28;20208;-88
2023/09/17 10:54:44;;;;;;;42.80;38.30;;;;;;;;;;5035549;28;20181;-88
2023/09/17 10:57:18;;;;;;;42.70;38.40;;;;;;;;;;5034798;28;20176;-88
2023/09/17 10:59:44;;;;;;;43.07;38.53;;;;;;;;;;5035971;28;20214;-87
2023/09/17 11:02:15;;;;;;;44.57;39.03;;;;;;;;;;5007684;28;20326;-87
2023/09/17 11:04:42;;;;;;;46.50;41.33;;;;;;;;;;5038617;28;20199;-87
2023/09/17 11:07:10;;;;;;;44.27;39.67;;;;;;;;;;5039143;28;20191;-88
2023/09/17 11:09:37;;;;;;;45.23;40.37;;;;;;;;;;5038748;28;20179;-88
2023/09/17 11:12:03;;;;;;;48.67;42.13;;;;;;;;;;5037401;28;20190;-88
2023/09/17 11:14:32;;;;;;;46.93;41.93;;;;;;;;;;5037298;28;20179;-88
2023/09/17 11:16:59;;;;;;;46.00;41.10;;;;;;;;;;5038349;28;20195;-87
2023/09/17 11:19:25;;;;;;;46.50;41.50;;;;;;;;;;5038948;28;20188;-87
2023/09/17 11:22:08;;;;;;;44.80;40.13;;;;;;;;;;5019491;28;20308;-87
2023/09/17 11:24:36;;;;;;;47.50;40.93;;;;;;;;;;5034950;28;20183;-87
2023/09/17 11:27:08;;;;;;;43.90;39.20;;;;;;;;;;5034884;28;20180;-87
2023/09/17 11:29:40;;;;;;;44.07;39.77;;;;;;;;;;5034797;28;20185;-87
2023/09/17 11:32:07;;;;;;;45.60;40.80;;;;;;;;;;5037475;28;20180;-88
2023/09/17 11:34:34;;;;;;;45.90;40.90;;;;;;;;;;5035181;28;20192;-86
2023/09/17 11:37:02;;;;;;;49.03;39.10;;;;;;;;;;5037369;28;20192;-84
2023/09/17 11:39:29;;;;;;;43.17;38.43;;;;;;;;;;5037382;28;20191;-85
2023/09/17 11:42:03;;;;;;;43.20;38.77;;;;;;;;;;5038083;28;20208;-85
2023/09/17 11:44:35;;;;;;;46.27;41.47;;;;;;;;;;5036897;28;20262;-89
2023/09/17 11:47:04;;;;;;;45.37;40.60;;;;;;;;;;5036720;28;20206;-86
2023/09/17 11:49:31;;;;;;;47.63;42.70;;;;;;;;;;5037331;28;20172;-87
2023/09/17 11:51:59;;;;;;;48.63;43.43;;;;;;;;;;5037064;28;20234;-87
2023/09/17 11:54:38;;;;;;;51.70;45.33;;;;;;;;;;5037305;28;20180;-87
2023/09/17 11:57:04;;;;;;;47.53;42.67;;;;;;;;;;5035768;28;20237;-87
2023/09/17 11:59:37;;;;;;;48.13;42.90;;;;;;;;;;5020546;28;20188;-88
2023/09/17 12:02:03;;;;;;;48.87;42.20;;;;;;;;;;5036933;28;20211;-87
2023/09/17 12:04:31;;;;;;;47.87;42.77;;;;;;;;;;5020562;28;20176;-87
2023/09/17 12:06:57;;;;;;;55.75;49.83;;;;;;;;;;5035424;28;20408;-87
2023/09/17 12:11:58;;;;;;;48.43;43.13;;;;;;;;;;5054598;28;20179;-88
2023/09/17 12:14:27;;;;;;;49.63;44.57;;;;;;;;;;5036682;28;20215;-82
2023/09/17 12:16:54;;;;;;;50.53;45.10;;;;;;;;;;5036777;28;20203;-88
2023/09/17 12:19:20;;;;;;;51.70;45.73;;;;;;;;;;5020579;28;20195;-88
2023/09/17 12:21:54;;;;;;;52.27;46.07;;;;;;;;;;5036696;28;20199;-88
2023/09/17 12:24:34;;;;;;;51.60;45.53;;;;;;;;;;5036849;28;20201;-88
2023/09/17 12:29:48;;;;;;;49.10;43.87;;;;;;;;;;5054289;28;20179;-88
2023/09/17 12:32:15;;;;;;;49.63;44.33;;;;;;;;;;5036527;28;20255;-88
2023/09/17 12:34:49;;;;;;;48.80;43.60;;;;;;;;;;5036110;28;20187;-87
2023/09/17 12:37:17;;;;;;;48.00;42.43;;;;;;;;;;5036774;28;20183;-88
2023/09/17 12:39:46;;;;;;;48.50;43.17;;;;;;;;;;5036372;28;20191;-89
2023/09/17 12:42:12;;;;;;;46.47;41.57;;;;;;;;;;5035321;28;20301;-88
2023/09/17 12:44:39;;;;;;;46.30;41.40;;;;;;;;;;5024342;28;20192;-89
2023/09/17 12:47:05;;;;;;;44.50;39.80;;;;;;;;;;5017565;28;20180;-89
2023/09/17 12:49:36;;;;;;;46.63;41.73;;;;;;;;;;5033603;28;20180;-88
2023/09/17 12:52:05;;;;;;;77.97;42.77;;;;;;;;;;5033098;28;20267;-89
2023/09/17 12:54:31;;;;;;;82.30;47.67;;;;;;;;;;5038800;28;20412;-87
2023/09/17 12:57:10;;;;;;;45.60;40.83;;;;;;;;;;5036264;28;20183;-89
2023/09/17 13:08:32;;;;;;;51.45;41.92;;;;;;;;;;5053351;28;20422;-87
2023/09/17 13:11:01;;;;;;;43.22;35.08;;;;;;;;;;5036478;28;20176;-88
2023/09/17 13:13:27;;;;;;;36.75;32.97;;;;;;;;;;5035493;28;20176;-88
2023/09/17 13:15:54;;;;;;;41.72;33.60;;;;;;;;;;5019880;28;20196;-87
2023/09/17 13:18:22;;;;;;;44.03;34.38;;;;;;;;;;5019985;28;20191;-87
2023/09/17 13:20:48;;;;;;;38.17;34.28;;;;;;;;;;5040351;28;20175;-84
2023/09/17 13:23:14;;;;;;;38.10;34.27;;;;;;;;;;5035953;28;20258;-84
2023/09/17 13:25:43;;;;;;;36.63;32.53;;;;;;;;;;5038806;28;20218;-84
2023/09/17 13:28:14;;;;;;;36.30;32.47;;;;;;;;;;5039711;28;20183;-84
2023/09/17 13:30:43;;;;;;;43.63;31.15;;;;;;;;;;5040071;28;20253;-83
2023/09/17 13:33:13;;;;;;;40.20;36.20;;;;;;;;;;5038211;28;20419;-85
2023/09/17 13:35:42;;;;;;;39.95;32.58;;;;;;;;;;5038507;28;20251;-85
2023/09/17 13:38:11;;;;;;;251.85;44.53;;;;;;;;;;5038785;28;20495;-85
2023/09/17 13:40:57;;;;;;;33.38;29.77;;;;;;;;;;5039580;28;20179;-84
2023/09/17 13:43:26;;;;;;;32.70;29.17;;;;;;;;;;5039574;28;20241;-83
2023/09/17 13:45:53;;;;;;;35.55;29.08;;;;;;;;;;5039723;28;20176;-84
2023/09/17 13:48:19;;;;;;;33.53;29.08;;;;;;;;;;5039521;28;20195;-85
2023/09/17 13:50:48;;;;;;;32.17;28.88;;;;;;;;;;5040579;28;20179;-85
2023/09/17 13:53:15;;;;;;;32.33;29.08;;;;;;;;;;5041147;28;20211;-85
2023/09/17 13:55:48;;;;;;;32.38;29.13;;;;;;;;;;5035283;28;20185;-84
2023/09/17 13:58:15;;;;;;;30.35;26.90;;;;;;;;;;5043781;28;20176;-84
2023/09/17 14:00:41;;;;;;;33.78;30.38;;;;;;;;;;5038990;28;20404;-82
2023/09/17 14:03:08;;;;;;;31.17;27.95;;;;;;;;;;5023443;28;20300;-82
2023/09/17 14:05:37;;;;;;;30.85;27.85;;;;;;;;;;5039392;28;20176;-82
2023/09/17 14:08:04;;;;;;;29.37;26.33;;;;;;;;;;5038521;28;20415;-82
2023/09/17 14:10:30;;;;;;;29.63;26.83;;;;;;;;;;5039604;28;20415;-82
2023/09/17 14:12:57;;;;;;;27.30;24.63;;;;;;;;;;5040429;28;20184;-87
2023/09/17 14:15:23;;;;;;;28.23;25.42;;;;;;;;;;5039588;28;20214;-87
2023/09/17 14:17:49;;;;;;;26.77;24.20;;;;;;;;;;5039565;28;20239;-89
2023/09/17 14:20:15;;;;;;;26.45;23.88;;;;;;;;;;5039353;28;20180;-87
2023/09/17 14:22:41;;;;;;;25.67;23.15;;;;;;;;;;5037943;28;20208;-86
2023/09/17 14:25:09;;;;;;;25.90;23.40;;;;;;;;;;5056253;28;20179;-88
2023/09/17 14:27:38;;;;;;;25.58;22.88;;;;;;;;;;5055695;28;20176;-87
2023/09/17 14:30:05;;;;;;;25.17;22.50;;;;;;;;;;5037939;28;20214;-88
2023/09/17 14:32:31;;;;;;;25.25;22.80;;;;;;;;;;5023137;28;20191;-88
2023/09/17 14:35:00;;;;;;;26.35;22.70;;;;;;;;;;5039076;28;20187;-88
2023/09/17 14:37:26;;;;;;;25.25;22.77;;;;;;;;;;5039225;28;20184;-87
2023/09/17 14:39:52;;;;;;;24.55;22.08;;;;;;;;;;5039032;28;20211;-87
2023/09/17 14:42:22;;;;;;;23.58;21.17;;;;;;;;;;5038730;28;20282;-88